createdAt,value
2022-11-18T00:02:10.554Z,2.10
2022-11-18T00:04:37.605Z,1.23
2022-11-18T00:07:04.745Z,1.27
2022-11-18T00:09:31.904Z,1.45
2022-11-18T00:11:58.988Z,2.72
2022-11-18T00:14:26.694Z,1.48
2022-11-18T00:16:57.659Z,3.70
2022-11-18T00:19:30.797Z,1.45
2022-11-18T00:21:58.589Z,0.55
2022-11-18T00:24:26.605Z,1.25
2022-11-18T00:26:54.918Z,1.65
2022-11-18T00:29:23.312Z,2.30
2022-11-18T00:31:50.477Z,2.20
2022-11-18T00:34:18.654Z,1.00
2022-11-18T00:36:47.016Z,2.35
2022-11-18T00:39:16.944Z,2.22
2022-11-18T00:41:44.392Z,2.33
2022-11-18T00:44:11.436Z,1.80
2022-11-18T00:46:38.578Z,0.65
2022-11-18T00:49:05.768Z,0.40
2022-11-18T00:51:32.884Z,1.23
2022-11-18T00:53:59.934Z,1.30
2022-11-18T00:56:27.145Z,3.33
2022-11-18T00:58:54.386Z,1.30
2022-11-18T01:01:21.636Z,0.63
2022-11-18T01:03:48.764Z,0.87
2022-11-18T01:06:16.298Z,0.15
2022-11-18T01:08:43.443Z,3.28
2022-11-18T01:11:10.702Z,0.85
2022-11-18T01:13:37.929Z,2.67
2022-11-18T01:16:05.285Z,0.43
2022-11-18T01:18:32.452Z,0.40
2022-11-18T01:21:03.790Z,0.45
2022-11-18T01:23:30.897Z,1.05
2022-11-18T01:25:58.101Z,1.27
2022-11-18T01:28:25.097Z,1.87
2022-11-18T01:30:52.300Z,0.55
2022-11-18T01:33:19.714Z,0.55
2022-11-18T01:35:46.765Z,0.40
2022-11-18T01:38:14.272Z,2.20
2022-11-18T01:40:41.886Z,0.55
2022-11-18T01:43:18.247Z,0.68
2022-11-18T01:45:48.349Z,0.82
2022-11-18T01:48:34.162Z,0.52
2022-11-18T01:51:06.135Z,2.38
2022-11-18T01:53:37.540Z,1.02
2022-11-18T01:56:08.740Z,1.33
2022-11-18T01:58:46.828Z,0.52
2022-11-18T02:01:14.209Z,0.35
2022-11-18T02:03:43.317Z,0.43
2022-11-18T02:06:11.840Z,0.22
2022-11-18T02:08:39.454Z,1.65
2022-11-18T02:11:10.757Z,0.30
2022-11-18T02:13:37.918Z,0.55
2022-11-18T02:16:15.953Z,0.23
2022-11-18T02:21:40.177Z,1.92
2022-11-18T02:24:22.393Z,3.03
2022-11-18T02:27:00.364Z,1.50
2022-11-18T02:32:03.198Z,0.57
2022-11-18T02:35:02.970Z,0.30
2022-11-18T02:37:49.034Z,0.22
2022-11-18T02:40:33.684Z,0.63
2022-11-18T02:43:15.800Z,0.40
2022-11-18T02:45:48.644Z,1.80
2022-11-18T02:48:17.841Z,0.43
2022-11-18T02:50:48.948Z,0.50
2022-11-18T02:53:20.153Z,0.40
2022-11-18T02:55:49.312Z,1.15
2022-11-18T02:58:20.676Z,0.65
2022-11-18T03:00:56.555Z,0.20
2022-11-18T03:03:27.901Z,0.38
2022-11-18T03:06:05.628Z,0.40
2022-11-18T03:08:39.353Z,0.40
2022-11-18T03:11:20.458Z,0.00
2022-11-18T03:13:52.140Z,1.05
2022-11-18T03:16:26.812Z,0.47
2022-11-18T03:19:15.287Z,1.75
2022-11-18T03:22:10.801Z,0.57
2022-11-18T03:24:47.450Z,0.60
2022-11-18T03:27:24.400Z,0.40
2022-11-18T03:30:01.523Z,0.88
2022-11-18T03:32:32.426Z,0.30
2022-11-18T03:35:04.273Z,0.43
2022-11-18T03:37:35.089Z,1.00
2022-11-18T03:40:09.951Z,1.33
2022-11-18T03:42:47.649Z,3.63
2022-11-18T03:45:24.097Z,0.10
2022-11-18T03:47:59.011Z,1.48
2022-11-18T03:50:38.630Z,0.93
2022-11-18T03:53:07.047Z,0.35
2022-11-18T03:55:39.723Z,0.10
2022-11-18T03:58:17.010Z,0.70
2022-11-18T04:00:48.541Z,0.57
2022-11-18T04:03:15.891Z,0.17
2022-11-18T04:05:44.110Z,0.30
2022-11-18T04:10:58.182Z,1.48
2022-11-18T04:13:30.124Z,0.50
2022-11-18T04:15:57.521Z,0.45
2022-11-18T04:18:24.781Z,1.10
2022-11-18T04:20:51.837Z,0.45
2022-11-18T04:23:19.284Z,0.50
2022-11-18T04:25:46.393Z,0.50
2022-11-18T04:28:13.492Z,5.68
2022-11-18T04:30:40.583Z,2.40
2022-11-18T04:33:07.890Z,1.40
2022-11-18T04:35:34.965Z,0.60
2022-11-18T04:38:02.013Z,0.30
2022-11-18T04:40:29.236Z,1.02
2022-11-18T04:42:56.279Z,0.87
2022-11-18T04:45:23.453Z,0.17
2022-11-18T04:47:50.686Z,1.10
2022-11-18T04:50:17.833Z,0.20
2022-11-18T04:52:45.009Z,1.70
2022-11-18T04:55:12.051Z,1.02
2022-11-18T04:57:39.108Z,0.22
2022-11-18T05:00:06.877Z,0.82
2022-11-18T05:02:33.980Z,0.10
2022-11-18T05:05:01.028Z,0.10
2022-11-18T05:07:28.230Z,0.10
2022-11-18T05:09:55.316Z,0.67
2022-11-18T05:12:22.417Z,0.75
2022-11-18T05:14:50.841Z,0.40
2022-11-18T05:17:18.849Z,1.08
2022-11-18T05:19:46.009Z,0.65
2022-11-18T05:22:14.692Z,0.50
2022-11-18T05:24:41.803Z,1.45
2022-11-18T05:27:08.928Z,0.10
2022-11-18T05:29:36.109Z,0.25
2022-11-18T05:32:03.242Z,0.90
2022-11-18T05:34:30.534Z,0.68
2022-11-18T05:36:57.617Z,0.60
2022-11-18T05:39:24.701Z,0.10
2022-11-18T05:41:51.868Z,0.43
2022-11-18T05:44:19.094Z,0.20
2022-11-18T05:46:46.186Z,1.90
2022-11-18T05:49:13.365Z,0.20
2022-11-18T05:51:40.585Z,1.35
2022-11-18T05:54:09.670Z,0.65
2022-11-18T05:56:39.144Z,0.28
2022-11-18T05:59:06.946Z,0.00
2022-11-18T06:01:49.188Z,1.13
2022-11-18T06:04:25.917Z,0.80
2022-11-18T06:06:58.114Z,0.60
2022-11-18T06:09:30.041Z,0.45
2022-11-18T06:12:00.619Z,1.88
2022-11-18T06:14:37.685Z,0.43
2022-11-18T06:17:10.514Z,0.60
2022-11-18T06:19:37.916Z,0.10
2022-11-18T06:22:05.958Z,1.52
2022-11-18T06:24:33.444Z,1.08
2022-11-18T06:27:01.075Z,0.55
2022-11-18T06:29:28.691Z,1.23
2022-11-18T06:31:56.091Z,0.52
2022-11-18T06:34:23.226Z,0.20
2022-11-18T06:36:50.483Z,1.55
2022-11-18T06:39:17.788Z,0.20
2022-11-18T06:41:45.044Z,0.88
2022-11-18T06:44:12.516Z,0.63
2022-11-18T06:46:39.649Z,1.15
2022-11-18T06:49:06.768Z,0.90
2022-11-18T06:51:33.857Z,0.85
2022-11-18T06:54:04.728Z,0.98
2022-11-18T06:56:34.951Z,1.40
2022-11-18T06:59:02.241Z,0.13
2022-11-18T07:01:31.464Z,0.80
2022-11-18T07:04:00.200Z,0.73
2022-11-18T07:06:30.192Z,0.98
2022-11-18T07:08:57.393Z,0.52
2022-11-18T07:11:25.993Z,0.43
2022-11-18T07:13:53.698Z,1.20
2022-11-18T07:16:23.657Z,0.75
2022-11-18T07:18:52.212Z,0.80
2022-11-18T07:21:21.770Z,1.08
2022-11-18T07:23:49.628Z,3.13
2022-11-18T07:26:16.917Z,2.65
2022-11-18T07:28:43.965Z,0.83
2022-11-18T07:31:16.233Z,0.45
2022-11-18T07:33:44.503Z,5.88
2022-11-18T07:36:12.804Z,0.52
2022-11-18T07:38:40.133Z,0.50
2022-11-18T07:41:08.044Z,0.77
2022-11-18T07:43:36.546Z,0.22
2022-11-18T07:46:20.270Z,0.40
2022-11-18T07:48:49.417Z,0.70
2022-11-18T07:51:18.166Z,0.38
2022-11-18T07:53:45.972Z,0.40
2022-11-18T07:56:14.171Z,0.28
2022-11-18T07:58:42.473Z,2.13
2022-11-18T08:01:11.915Z,0.00
2022-11-18T08:03:39.796Z,0.10
2022-11-18T08:06:08.515Z,0.50
2022-11-18T08:08:36.414Z,0.63
2022-11-18T08:11:07.784Z,3.10
2022-11-18T08:13:35.881Z,0.50
2022-11-18T08:16:04.503Z,0.50
2022-11-18T08:18:32.768Z,0.32
2022-11-18T08:21:03.764Z,0.32
2022-11-18T08:23:34.048Z,1.02
2022-11-18T08:26:11.778Z,1.77
2022-11-18T08:28:39.141Z,0.60
2022-11-18T08:31:14.844Z,0.47
2022-11-18T08:33:42.020Z,0.30
2022-11-18T08:36:18.570Z,2.53
2022-11-18T08:38:45.728Z,0.20
2022-11-18T08:41:14.574Z,0.80
2022-11-18T08:43:41.876Z,0.55
2022-11-18T08:46:09.038Z,0.47
2022-11-18T08:48:36.245Z,0.60
2022-11-18T08:51:04.584Z,0.67
2022-11-18T08:53:31.741Z,1.25
2022-11-18T08:56:00.483Z,0.75
2022-11-18T08:58:28.257Z,0.73
2022-11-18T09:00:55.636Z,7.05
2022-11-18T09:03:23.200Z,1.10
2022-11-18T09:05:50.462Z,1.42
2022-11-18T09:08:17.573Z,1.13
2022-11-18T09:10:44.957Z,2.60
2022-11-18T09:13:40.467Z,0.63
2022-11-18T09:16:00.266Z,1.45
2022-11-18T09:20:56.398Z,0.85
2022-11-18T09:23:23.724Z,1.05
2022-11-18T09:26:01.144Z,1.25
2022-11-18T09:28:28.711Z,0.35
2022-11-18T09:30:56.169Z,1.17
2022-11-18T09:33:32.018Z,0.68
2022-11-18T09:35:59.163Z,0.80
2022-11-18T09:38:28.478Z,0.50
2022-11-18T09:41:07.201Z,0.90
2022-11-18T09:43:48.171Z,0.40
2022-11-18T09:46:22.453Z,0.60
2022-11-18T09:48:50.237Z,0.88
2022-11-18T09:51:17.369Z,0.85
2022-11-18T09:53:44.954Z,0.40
2022-11-18T09:56:15.395Z,1.35
2022-11-18T09:58:43.833Z,1.00
2022-11-18T10:01:18.228Z,1.75
2022-11-18T10:03:45.667Z,0.68
2022-11-18T10:06:25.000Z,1.75
2022-11-18T10:09:13.356Z,0.52
2022-11-18T10:12:01.924Z,1.60
2022-11-18T10:15:02.761Z,1.33
2022-11-18T10:18:02.394Z,4.68
2022-11-18T10:20:38.331Z,3.80
2022-11-18T10:23:21.900Z,2.92
2022-11-18T10:25:48.969Z,0.90
2022-11-18T10:28:27.306Z,0.60
2022-11-18T10:30:54.420Z,0.77
2022-11-18T10:33:21.438Z,0.17
2022-11-18T10:35:49.536Z,0.10
2022-11-18T10:40:50.834Z,0.60
2022-11-18T10:43:54.530Z,0.25
2022-11-18T10:46:33.262Z,1.20
2022-11-18T10:49:09.555Z,0.60
2022-11-18T10:51:39.533Z,0.50
2022-11-18T10:54:14.074Z,0.30
2022-11-18T10:56:58.493Z,0.20
2022-11-18T10:59:36.336Z,0.82
2022-11-18T11:02:32.588Z,0.40
2022-11-18T11:05:03.014Z,0.60
2022-11-18T11:07:36.037Z,1.02
2022-11-18T11:10:19.076Z,1.63
2022-11-18T11:12:56.387Z,2.00
2022-11-18T11:15:41.378Z,1.33
2022-11-18T11:18:21.133Z,1.35
2022-11-18T11:20:48.471Z,0.20
2022-11-18T11:23:22.106Z,0.55
2022-11-18T11:29:07.621Z,1.88
2022-11-18T11:31:54.585Z,1.38
2022-11-18T11:34:50.777Z,0.70
2022-11-18T11:37:17.935Z,0.63
2022-11-18T11:39:54.108Z,0.30
2022-11-18T11:42:51.346Z,0.75
2022-11-18T11:45:29.951Z,0.47
2022-11-18T11:48:23.557Z,0.65
2022-11-18T11:51:01.932Z,1.30
2022-11-18T11:53:53.471Z,0.65
2022-11-18T11:56:47.569Z,0.77
2022-11-18T11:59:43.122Z,2.38
2022-11-18T12:02:27.870Z,0.80
2022-11-18T12:05:10.849Z,1.10
2022-11-18T12:07:46.693Z,1.95
2022-11-18T12:10:32.864Z,2.03
2022-11-18T12:13:18.742Z,7.03
2022-11-18T12:16:10.330Z,2.58
2022-11-18T12:18:46.730Z,0.88
2022-11-18T12:21:45.036Z,0.65
2022-11-18T12:24:18.112Z,2.40
2022-11-18T12:26:47.500Z,0.50
2022-11-18T12:29:20.682Z,1.23
2022-11-18T12:31:55.854Z,4.30
2022-11-18T12:34:25.435Z,0.50
2022-11-18T12:36:54.650Z,0.20
2022-11-18T12:39:24.792Z,0.30
2022-11-18T12:41:58.422Z,0.68
2022-11-18T12:44:27.862Z,0.45
2022-11-18T12:47:02.446Z,0.40
2022-11-18T12:49:29.458Z,0.85
2022-11-18T12:52:01.244Z,1.73
2022-11-18T12:54:30.822Z,0.55
2022-11-18T12:57:01.118Z,0.68
2022-11-18T12:59:31.682Z,0.82
2022-11-18T13:02:10.844Z,1.23
2022-11-18T13:04:45.768Z,0.52
2022-11-18T13:07:14.093Z,0.30
2022-11-18T13:09:41.486Z,2.80
2022-11-18T13:12:17.795Z,1.95
2022-11-18T13:14:45.768Z,0.30
2022-11-18T13:17:35.840Z,0.28
2022-11-18T13:20:03.297Z,2.05
2022-11-18T13:22:30.385Z,4.80
2022-11-18T13:24:57.438Z,8.30
2022-11-18T13:27:49.242Z,13.30
2022-11-18T13:30:17.370Z,7.63
2022-11-18T13:32:46.866Z,0.88
2022-11-18T13:35:19.893Z,4.90
2022-11-18T13:37:52.671Z,1.95
2022-11-18T13:40:28.769Z,0.45
2022-11-18T13:42:56.180Z,0.40
2022-11-18T13:45:28.354Z,2.28
2022-11-18T13:48:05.736Z,6.60
2022-11-18T13:50:37.422Z,4.25
2022-11-18T13:53:26.073Z,5.90
2022-11-18T13:56:14.330Z,8.88
2022-11-18T14:01:38.794Z,20.67
2022-11-18T14:04:16.367Z,22.42
2022-11-18T14:06:43.537Z,18.90
2022-11-18T14:09:27.305Z,20.02
2022-11-18T14:12:13.574Z,15.68
2022-11-18T14:14:43.033Z,26.27
2022-11-18T14:17:24.497Z,27.38
2022-11-18T14:19:54.349Z,27.52
2022-11-18T14:22:24.545Z,12.20
2022-11-18T14:25:00.053Z,11.38
2022-11-18T14:27:44.976Z,5.03
2022-11-18T14:30:31.947Z,1.63
2022-11-18T14:33:18.788Z,2.45
2022-11-18T14:35:51.850Z,7.23
2022-11-18T14:38:57.597Z,2.13
2022-11-18T14:41:29.902Z,1.55
2022-11-18T14:43:56.954Z,1.02
2022-11-18T14:46:24.100Z,3.22
2022-11-18T14:48:51.311Z,3.03
2022-11-18T14:51:18.367Z,1.58
2022-11-18T14:53:45.454Z,1.50
2022-11-18T14:56:18.260Z,1.48
2022-11-18T14:58:45.357Z,1.88
2022-11-18T15:01:13.260Z,1.75
2022-11-18T15:03:40.503Z,1.85
2022-11-18T15:06:15.878Z,2.00
2022-11-18T15:08:44.367Z,0.70
2022-11-18T15:11:12.063Z,3.17
2022-11-18T15:13:40.214Z,1.52
2022-11-18T15:18:40.097Z,1.88
2022-11-18T15:21:07.202Z,1.08
2022-11-18T15:23:34.266Z,1.45
2022-11-18T15:26:02.740Z,1.13
2022-11-18T15:28:29.891Z,1.85
2022-11-18T15:30:56.933Z,0.90
2022-11-18T15:33:24.015Z,1.92
2022-11-18T15:35:51.069Z,1.13
2022-11-18T15:38:18.173Z,1.35
2022-11-18T15:40:45.226Z,0.82
2022-11-18T15:43:12.473Z,0.63
2022-11-18T15:45:39.572Z,0.43
2022-11-18T15:48:06.626Z,1.45
2022-11-18T15:50:33.677Z,0.43
2022-11-18T15:53:00.937Z,1.73
2022-11-18T15:55:27.985Z,0.50
2022-11-18T15:57:55.029Z,1.48
2022-11-18T16:00:22.101Z,1.58
2022-11-18T16:02:49.161Z,1.20
2022-11-18T16:05:16.298Z,1.65
2022-11-18T16:07:43.499Z,1.60
2022-11-18T16:10:10.669Z,1.33
2022-11-18T16:12:37.726Z,1.45
2022-11-18T16:15:05.277Z,1.17
2022-11-18T16:17:32.346Z,0.80
2022-11-18T16:19:59.433Z,1.48
2022-11-18T16:22:26.597Z,1.27
2022-11-18T16:24:53.670Z,1.33
2022-11-18T16:27:20.855Z,1.35
2022-11-18T16:29:48.147Z,1.02
2022-11-18T16:32:15.201Z,0.52
2022-11-18T16:34:42.262Z,2.53
2022-11-18T16:37:09.406Z,1.58
2022-11-18T16:39:36.441Z,1.02
2022-11-18T16:42:10.557Z,0.60
2022-11-18T16:44:37.789Z,2.72
2022-11-18T16:47:13.830Z,2.92
2022-11-18T16:49:42.358Z,2.80
2022-11-18T16:52:09.614Z,3.10
2022-11-18T16:54:42.993Z,2.38
2022-11-18T16:57:12.551Z,2.47
2022-11-18T16:59:39.757Z,1.67
2022-11-18T17:02:07.471Z,2.00
2022-11-18T17:04:34.977Z,3.28
2022-11-18T17:07:02.059Z,1.97
2022-11-18T17:09:32.183Z,1.15
2022-11-18T17:11:59.235Z,1.33
2022-11-18T17:14:26.433Z,1.48
2022-11-18T17:16:53.582Z,1.38
2022-11-18T17:19:23.159Z,1.55
2022-11-18T17:21:51.368Z,1.98
2022-11-18T17:24:21.261Z,1.50
2022-11-18T17:26:49.120Z,2.80
2022-11-18T17:29:17.056Z,1.25
2022-11-18T17:34:13.692Z,1.30
2022-11-18T17:36:41.608Z,1.38
2022-11-18T17:39:10.206Z,6.22
2022-11-18T17:41:37.546Z,1.98
2022-11-18T17:44:06.608Z,2.70
2022-11-18T17:46:38.040Z,2.92
2022-11-18T17:49:10.866Z,1.35
2022-11-18T17:51:38.047Z,2.35
2022-11-18T17:54:05.406Z,1.70
2022-11-18T17:56:32.517Z,1.30
2022-11-18T17:58:59.799Z,1.97
2022-11-18T18:01:26.959Z,1.98
2022-11-18T18:03:54.166Z,4.25
2022-11-18T18:06:21.416Z,3.33
2022-11-18T18:08:48.602Z,3.60
2022-11-18T18:11:18.425Z,3.53
2022-11-18T18:13:45.745Z,2.03
2022-11-18T18:16:12.831Z,3.83
2022-11-18T18:18:40.587Z,3.92
2022-11-18T18:21:12.651Z,1.65
2022-11-18T18:23:40.292Z,1.77
2022-11-18T18:26:09.255Z,3.72
2022-11-18T18:28:36.929Z,3.58
2022-11-18T18:31:07.019Z,3.05
2022-11-18T18:33:35.013Z,2.92
2022-11-18T18:36:05.733Z,2.03
2022-11-18T18:38:33.756Z,5.00
2022-11-18T18:41:02.913Z,3.35
2022-11-18T18:43:30.287Z,1.45
2022-11-18T18:46:06.250Z,1.23
2022-11-18T18:48:33.563Z,3.65
2022-11-18T18:51:04.437Z,4.68
2022-11-18T18:53:32.438Z,2.83
2022-11-18T18:55:59.782Z,3.08
2022-11-18T18:58:26.987Z,4.03
2022-11-18T19:00:58.064Z,1.77
2022-11-18T19:03:25.501Z,3.53
2022-11-18T19:06:27.380Z,2.22
2022-11-18T19:08:39.707Z,2.10
2022-11-18T19:11:06.849Z,5.38
2022-11-18T19:13:33.911Z,6.28
2022-11-18T19:16:05.788Z,2.25
2022-11-18T19:18:36.007Z,2.90
2022-11-18T19:21:03.373Z,5.22
2022-11-18T19:23:30.381Z,2.27
2022-11-18T19:26:01.248Z,3.88
2022-11-18T19:28:28.321Z,4.50
2022-11-18T19:30:55.470Z,2.40
2022-11-18T19:33:22.742Z,3.78
2022-11-18T19:35:49.737Z,2.13
2022-11-18T19:38:16.919Z,3.47
2022-11-18T19:40:44.001Z,3.60
2022-11-18T19:43:11.062Z,2.38
2022-11-18T19:45:38.325Z,3.15
2022-11-18T19:48:05.493Z,1.77
2022-11-18T19:50:32.673Z,3.70
2022-11-18T19:52:59.717Z,5.93
2022-11-18T19:55:26.814Z,1.30
2022-11-18T19:57:54.132Z,1.17
2022-11-18T20:00:21.327Z,2.17
2022-11-18T20:02:48.383Z,1.10
2022-11-18T20:05:15.738Z,1.88
2022-11-18T20:07:42.755Z,2.70
2022-11-18T20:10:10.413Z,1.17
2022-11-18T20:12:37.581Z,2.60
2022-11-18T20:15:05.116Z,4.07
2022-11-18T20:17:32.188Z,5.85
2022-11-18T20:19:59.292Z,2.35
2022-11-18T20:22:26.427Z,3.78
2022-11-18T20:24:53.491Z,3.75
2022-11-18T20:27:20.782Z,8.32
2022-11-18T20:29:47.855Z,2.00
2022-11-18T20:32:14.909Z,2.25
2022-11-18T20:34:42.125Z,2.75
2022-11-18T20:37:09.187Z,2.97
2022-11-18T20:39:36.423Z,1.73
2022-11-18T20:42:03.578Z,4.57
2022-11-18T20:44:30.831Z,2.43
2022-11-18T20:46:57.915Z,2.38
2022-11-18T20:49:25.067Z,4.00
2022-11-18T20:51:52.131Z,1.95
2022-11-18T20:54:19.189Z,2.38
2022-11-18T20:56:46.295Z,3.38
2022-11-18T20:59:13.632Z,3.08
2022-11-18T21:01:40.872Z,1.93
2022-11-18T21:04:10.887Z,2.30
2022-11-18T21:06:38.064Z,2.22
2022-11-18T21:09:06.373Z,2.60
2022-11-18T21:14:01.974Z,1.20
2022-11-18T21:16:29.100Z,2.03
2022-11-18T21:18:56.541Z,2.20
2022-11-18T21:21:23.551Z,1.87
2022-11-18T21:23:58.011Z,1.55
2022-11-18T21:26:27.832Z,0.80
2022-11-18T21:28:57.437Z,1.77
2022-11-18T21:31:26.158Z,1.38
2022-11-18T21:33:53.912Z,0.90
2022-11-18T21:36:22.044Z,2.40
2022-11-18T21:41:16.277Z,1.77
2022-11-18T21:44:04.394Z,2.40
2022-11-18T21:49:00.397Z,2.50
2022-11-18T21:51:28.247Z,1.80
2022-11-18T21:53:55.303Z,1.48
2022-11-18T21:56:24.214Z,1.30
2022-11-18T21:58:52.451Z,4.90
2022-11-18T22:01:22.084Z,2.05
2022-11-18T22:03:55.200Z,2.63
2022-11-18T22:06:24.693Z,2.80
2022-11-18T22:08:52.567Z,2.85
2022-11-18T22:11:20.247Z,1.92
2022-11-18T22:13:47.335Z,2.17
2022-11-18T22:16:19.572Z,3.85
2022-11-18T22:18:51.730Z,1.13
2022-11-18T22:21:23.516Z,3.10
2022-11-18T22:23:50.573Z,1.25
2022-11-18T22:26:20.106Z,1.90
2022-11-18T22:28:48.012Z,1.30
2022-11-18T22:31:19.795Z,1.73
2022-11-18T22:33:47.700Z,1.00
2022-11-18T22:36:16.416Z,1.65
2022-11-18T22:38:44.773Z,1.85
2022-11-18T22:41:16.810Z,2.80
2022-11-18T22:43:43.985Z,1.20
2022-11-18T22:46:11.160Z,0.90
2022-11-18T22:48:38.270Z,0.82
2022-11-18T22:51:06.666Z,5.00
2022-11-18T22:53:33.713Z,1.42
2022-11-18T22:56:02.823Z,0.80
2022-11-18T22:58:30.325Z,1.40
2022-11-18T23:01:24.032Z,0.85
2022-11-18T23:03:52.022Z,1.25
2022-11-18T23:06:19.426Z,1.33
2022-11-18T23:08:46.525Z,1.27
2022-11-18T23:11:19.514Z,2.83
2022-11-18T23:13:46.598Z,2.15
2022-11-18T23:16:13.884Z,0.93
2022-11-18T23:18:40.950Z,0.83
2022-11-18T23:21:07.994Z,0.82
2022-11-18T23:23:35.190Z,1.40
2022-11-18T23:26:07.241Z,0.55
2022-11-18T23:28:34.885Z,1.08
2022-11-18T23:31:17.620Z,4.03
2022-11-18T23:33:45.451Z,0.65
2022-11-18T23:36:15.084Z,0.32
2022-11-18T23:38:42.486Z,0.70
2022-11-18T23:41:11.637Z,1.17
2022-11-18T23:43:39.610Z,1.83
2022-11-18T23:46:09.273Z,1.02
2022-11-18T23:48:38.521Z,0.35
2022-11-18T23:51:10.729Z,2.33
2022-11-18T23:53:39.023Z,1.15
2022-11-18T23:56:11.762Z,2.35
2022-11-18T23:58:40.374Z,0.85
